sensor_id;sensor_type;location;lat;lon;timestamp;P1;durP1;ratioP1;P2;durP2;ratioP2
75486;SDS011;64068;44.762;21.514;2022-11-04T00:02:02;26.88;;;12.90;;
75486;SDS011;64068;44.762;21.514;2022-11-04T00:04:29;21.08;;;13.23;;
75486;SDS011;64068;44.762;21.514;2022-11-04T00:06:55;24.50;;;13.68;;
75486;SDS011;64068;44.762;21.514;2022-11-04T00:09:22;20.80;;;13.15;;
75486;SDS011;64068;44.762;21.514;2022-11-04T00:11:49;19.80;;;12.35;;
75486;SDS011;64068;44.762;21.514;2022-11-04T00:14:33;23.92;;;14.10;;
75486;SDS011;64068;44.762;21.514;2022-11-04T00:17:00;25.10;;;15.50;;
75486;SDS011;64068;44.762;21.514;2022-11-04T00:19:45;22.10;;;13.40;;
75486;SDS011;64068;44.762;21.514;2022-11-04T00:22:30;20.25;;;13.52;;
75486;SDS011;64068;44.762;21.514;2022-11-04T00:25:15;30.45;;;16.40;;
75486;SDS011;64068;44.762;21.514;2022-11-04T00:28:03;26.52;;;14.90;;
75486;SDS011;64068;44.762;21.514;2022-11-04T00:30:51;26.38;;;14.23;;
75486;SDS011;64068;44.762;21.514;2022-11-04T00:33:18;22.40;;;14.38;;
75486;SDS011;64068;44.762;21.514;2022-11-04T00:35:50;22.10;;;12.85;;
75486;SDS011;64068;44.762;21.514;2022-11-04T00:38:17;21.85;;;13.85;;
75486;SDS011;64068;44.762;21.514;2022-11-04T00:40:43;23.85;;;15.20;;
75486;SDS011;64068;44.762;21.514;2022-11-04T00:43:09;26.77;;;13.63;;
75486;SDS011;64068;44.762;21.514;2022-11-04T00:45:36;26.30;;;13.90;;
75486;SDS011;64068;44.762;21.514;2022-11-04T00:48:02;26.73;;;14.73;;
75486;SDS011;64068;44.762;21.514;2022-11-04T00:50:28;24.27;;;14.57;;
75486;SDS011;64068;44.762;21.514;2022-11-04T00:52:58;21.67;;;13.02;;
75486;SDS011;64068;44.762;21.514;2022-11-04T00:55:24;28.63;;;18.52;;
75486;SDS011;64068;44.762;21.514;2022-11-04T00:57:51;23.98;;;14.55;;
75486;SDS011;64068;44.762;21.514;2022-11-04T01:00:17;25.15;;;14.57;;
75486;SDS011;64068;44.762;21.514;2022-11-04T01:02:44;19.88;;;13.60;;
75486;SDS011;64068;44.762;21.514;2022-11-04T01:05:10;29.95;;;13.85;;
75486;SDS011;64068;44.762;21.514;2022-11-04T01:07:36;27.15;;;14.88;;
75486;SDS011;64068;44.762;21.514;2022-11-04T01:10:03;28.60;;;14.55;;
75486;SDS011;64068;44.762;21.514;2022-11-04T01:12:29;29.23;;;16.30;;
75486;SDS011;64068;44.762;21.514;2022-11-04T01:14:55;24.75;;;15.70;;
75486;SDS011;64068;44.762;21.514;2022-11-04T01:17:22;24.00;;;15.82;;
75486;SDS011;64068;44.762;21.514;2022-11-04T01:19:48;23.27;;;15.18;;
75486;SDS011;64068;44.762;21.514;2022-11-04T01:22:14;25.75;;;16.23;;
75486;SDS011;64068;44.762;21.514;2022-11-04T01:24:40;29.33;;;17.48;;
75486;SDS011;64068;44.762;21.514;2022-11-04T01:27:06;24.90;;;16.10;;
75486;SDS011;64068;44.762;21.514;2022-11-04T01:29:32;30.52;;;19.27;;
75486;SDS011;64068;44.762;21.514;2022-11-04T01:31:58;31.35;;;20.73;;
75486;SDS011;64068;44.762;21.514;2022-11-04T01:34:24;30.15;;;23.55;;
75486;SDS011;64068;44.762;21.514;2022-11-04T01:36:50;37.00;;;27.90;;
75486;SDS011;64068;44.762;21.514;2022-11-04T01:39:16;31.45;;;23.48;;
75486;SDS011;64068;44.762;21.514;2022-11-04T01:41:43;31.63;;;19.45;;
75486;SDS011;64068;44.762;21.514;2022-11-04T01:46:54;25.30;;;15.32;;
75486;SDS011;64068;44.762;21.514;2022-11-04T01:51:53;20.42;;;13.10;;
75486;SDS011;64068;44.762;21.514;2022-11-04T01:54:21;32.28;;;19.67;;
75486;SDS011;64068;44.762;21.514;2022-11-04T01:56:48;25.70;;;18.02;;
75486;SDS011;64068;44.762;21.514;2022-11-04T01:59:22;26.17;;;14.88;;
75486;SDS011;64068;44.762;21.514;2022-11-04T02:01:49;25.48;;;14.45;;
75486;SDS011;64068;44.762;21.514;2022-11-04T02:04:16;24.35;;;13.13;;
75486;SDS011;64068;44.762;21.514;2022-11-04T02:07:12;25.77;;;16.42;;
75486;SDS011;64068;44.762;21.514;2022-11-04T02:09:38;23.42;;;14.60;;
75486;SDS011;64068;44.762;21.514;2022-11-04T02:12:04;20.92;;;13.60;;
75486;SDS011;64068;44.762;21.514;2022-11-04T02:14:49;28.77;;;13.35;;
75486;SDS011;64068;44.762;21.514;2022-11-04T02:19:55;19.70;;;12.05;;
75486;SDS011;64068;44.762;21.514;2022-11-04T02:25:30;22.27;;;11.77;;
75486;SDS011;64068;44.762;21.514;2022-11-04T02:30:32;20.15;;;11.50;;
75486;SDS011;64068;44.762;21.514;2022-11-04T02:37:59;18.48;;;11.13;;
75486;SDS011;64068;44.762;21.514;2022-11-04T02:43:08;25.45;;;11.50;;
75486;SDS011;64068;44.762;21.514;2022-11-04T02:45:45;13.95;;;9.82;;
75486;SDS011;64068;44.762;21.514;2022-11-04T02:53:06;21.08;;;10.50;;
75486;SDS011;64068;44.762;21.514;2022-11-04T02:55:38;14.20;;;10.13;;
75486;SDS011;64068;44.762;21.514;2022-11-04T02:58:08;21.85;;;10.27;;
75486;SDS011;64068;44.762;21.514;2022-11-04T03:00:37;19.17;;;11.00;;
75486;SDS011;64068;44.762;21.514;2022-11-04T03:03:06;23.80;;;11.02;;
75486;SDS011;64068;44.762;21.514;2022-11-04T03:05:34;22.63;;;11.70;;
75486;SDS011;64068;44.762;21.514;2022-11-04T03:08:03;18.85;;;10.80;;
75486;SDS011;64068;44.762;21.514;2022-11-04T03:10:37;19.45;;;10.60;;
75486;SDS011;64068;44.762;21.514;2022-11-04T03:13:15;18.90;;;10.40;;
75486;SDS011;64068;44.762;21.514;2022-11-04T03:15:45;18.85;;;10.15;;
75486;SDS011;64068;44.762;21.514;2022-11-04T03:18:21;18.17;;;10.50;;
75486;SDS011;64068;44.762;21.514;2022-11-04T03:20:48;16.27;;;9.75;;
75486;SDS011;64068;44.762;21.514;2022-11-04T03:23:15;15.45;;;9.35;;
75486;SDS011;64068;44.762;21.514;2022-11-04T03:25:45;18.65;;;9.88;;
75486;SDS011;64068;44.762;21.514;2022-11-04T03:28:27;18.38;;;10.50;;
75486;SDS011;64068;44.762;21.514;2022-11-04T03:30:59;17.00;;;9.98;;
75486;SDS011;64068;44.762;21.514;2022-11-04T03:35:58;14.07;;;10.35;;
75486;SDS011;64068;44.762;21.514;2022-11-04T03:38:24;16.33;;;10.00;;
75486;SDS011;64068;44.762;21.514;2022-11-04T03:40:50;14.38;;;10.25;;
75486;SDS011;64068;44.762;21.514;2022-11-04T03:43:18;17.05;;;9.75;;
75486;SDS011;64068;44.762;21.514;2022-11-04T03:45:46;17.40;;;9.85;;
75486;SDS011;64068;44.762;21.514;2022-11-04T03:48:12;18.15;;;10.23;;
75486;SDS011;64068;44.762;21.514;2022-11-04T03:50:39;17.30;;;10.38;;
75486;SDS011;64068;44.762;21.514;2022-11-04T03:53:06;21.38;;;10.45;;
75486;SDS011;64068;44.762;21.514;2022-11-04T03:58:53;18.48;;;9.88;;
75486;SDS011;64068;44.762;21.514;2022-11-04T04:03:57;16.00;;;9.00;;
75486;SDS011;64068;44.762;21.514;2022-11-04T04:06:29;17.48;;;9.68;;
75486;SDS011;64068;44.762;21.514;2022-11-04T04:08:57;17.95;;;9.98;;
75486;SDS011;64068;44.762;21.514;2022-11-04T04:21:53;19.20;;;9.25;;
75486;SDS011;64068;44.762;21.514;2022-11-04T04:24:22;18.20;;;9.93;;
75486;SDS011;64068;44.762;21.514;2022-11-04T04:27:10;15.27;;;8.93;;
75486;SDS011;64068;44.762;21.514;2022-11-04T04:29:55;19.60;;;10.25;;
75486;SDS011;64068;44.762;21.514;2022-11-04T04:32:21;15.95;;;9.00;;
75486;SDS011;64068;44.762;21.514;2022-11-04T04:34:49;14.93;;;9.73;;
75486;SDS011;64068;44.762;21.514;2022-11-04T04:37:17;14.18;;;9.43;;
75486;SDS011;64068;44.762;21.514;2022-11-04T04:39:46;17.15;;;9.73;;
75486;SDS011;64068;44.762;21.514;2022-11-04T04:42:34;16.83;;;9.27;;
75486;SDS011;64068;44.762;21.514;2022-11-04T04:45:24;15.55;;;9.25;;
75486;SDS011;64068;44.762;21.514;2022-11-04T04:47:52;17.08;;;9.68;;
75486;SDS011;64068;44.762;21.514;2022-11-04T04:50:19;19.63;;;10.00;;
75486;SDS011;64068;44.762;21.514;2022-11-04T04:52:47;18.42;;;9.38;;
75486;SDS011;64068;44.762;21.514;2022-11-04T04:55:14;14.43;;;8.80;;
75486;SDS011;64068;44.762;21.514;2022-11-04T04:57:40;17.80;;;9.77;;
75486;SDS011;64068;44.762;21.514;2022-11-04T05:00:07;19.95;;;10.18;;
75486;SDS011;64068;44.762;21.514;2022-11-04T05:02:34;17.95;;;9.65;;
75486;SDS011;64068;44.762;21.514;2022-11-04T05:05:00;21.52;;;9.90;;
75486;SDS011;64068;44.762;21.514;2022-11-04T05:07:26;18.60;;;10.98;;
75486;SDS011;64068;44.762;21.514;2022-11-04T05:09:52;16.77;;;11.10;;
75486;SDS011;64068;44.762;21.514;2022-11-04T05:12:18;16.10;;;9.25;;
75486;SDS011;64068;44.762;21.514;2022-11-04T05:14:45;16.95;;;10.15;;
75486;SDS011;64068;44.762;21.514;2022-11-04T05:17:12;16.15;;;9.70;;
75486;SDS011;64068;44.762;21.514;2022-11-04T05:19:38;17.80;;;9.63;;
75486;SDS011;64068;44.762;21.514;2022-11-04T05:22:04;15.75;;;9.63;;
75486;SDS011;64068;44.762;21.514;2022-11-04T05:24:30;16.75;;;9.07;;
75486;SDS011;64068;44.762;21.514;2022-11-04T05:26:56;19.25;;;9.57;;
75486;SDS011;64068;44.762;21.514;2022-11-04T05:29:22;18.63;;;10.50;;
75486;SDS011;64068;44.762;21.514;2022-11-04T05:31:49;15.00;;;9.25;;
75486;SDS011;64068;44.762;21.514;2022-11-04T05:34:15;20.67;;;9.25;;
75486;SDS011;64068;44.762;21.514;2022-11-04T05:36:41;16.13;;;10.13;;
75486;SDS011;64068;44.762;21.514;2022-11-04T05:39:09;21.50;;;10.80;;
75486;SDS011;64068;44.762;21.514;2022-11-04T05:41:36;16.85;;;9.98;;
75486;SDS011;64068;44.762;21.514;2022-11-04T05:44:02;16.63;;;9.43;;
75486;SDS011;64068;44.762;21.514;2022-11-04T05:46:29;21.10;;;10.00;;
75486;SDS011;64068;44.762;21.514;2022-11-04T05:48:55;20.40;;;10.27;;
75486;SDS011;64068;44.762;21.514;2022-11-04T05:51:22;19.92;;;10.23;;
75486;SDS011;64068;44.762;21.514;2022-11-04T05:53:49;31.45;;;15.70;;
75486;SDS011;64068;44.762;21.514;2022-11-04T05:56:15;30.98;;;16.70;;
75486;SDS011;64068;44.762;21.514;2022-11-04T05:58:41;24.05;;;13.77;;
75486;SDS011;64068;44.762;21.514;2022-11-04T06:03:52;20.25;;;9.43;;
75486;SDS011;64068;44.762;21.514;2022-11-04T06:06:19;24.55;;;14.52;;
75486;SDS011;64068;44.762;21.514;2022-11-04T06:08:46;26.17;;;15.25;;
75486;SDS011;64068;44.762;21.514;2022-11-04T06:11:12;32.03;;;15.75;;
75486;SDS011;64068;44.762;21.514;2022-11-04T06:13:38;23.90;;;12.65;;
75486;SDS011;64068;44.762;21.514;2022-11-04T06:16:04;18.45;;;11.95;;
75486;SDS011;64068;44.762;21.514;2022-11-04T06:18:31;20.27;;;10.63;;
75486;SDS011;64068;44.762;21.514;2022-11-04T06:23:36;19.45;;;9.80;;
75486;SDS011;64068;44.762;21.514;2022-11-04T06:26:02;16.55;;;9.50;;
75486;SDS011;64068;44.762;21.514;2022-11-04T06:28:28;15.68;;;10.07;;
75486;SDS011;64068;44.762;21.514;2022-11-04T06:30:58;17.65;;;9.82;;
75486;SDS011;64068;44.762;21.514;2022-11-04T06:33:24;13.63;;;9.60;;
75486;SDS011;64068;44.762;21.514;2022-11-04T06:35:51;17.25;;;9.70;;
75486;SDS011;64068;44.762;21.514;2022-11-04T06:38:18;14.80;;;9.73;;
75486;SDS011;64068;44.762;21.514;2022-11-04T06:40:44;16.27;;;10.45;;
75486;SDS011;64068;44.762;21.514;2022-11-04T06:43:10;20.67;;;9.45;;
75486;SDS011;64068;44.762;21.514;2022-11-04T06:45:36;18.67;;;10.52;;
75486;SDS011;64068;44.762;21.514;2022-11-04T06:48:03;20.33;;;10.25;;
75486;SDS011;64068;44.762;21.514;2022-11-04T06:50:29;18.88;;;9.82;;
75486;SDS011;64068;44.762;21.514;2022-11-04T06:52:55;15.70;;;9.55;;
75486;SDS011;64068;44.762;21.514;2022-11-04T06:55:21;17.02;;;9.95;;
75486;SDS011;64068;44.762;21.514;2022-11-04T06:57:47;18.63;;;10.20;;
75486;SDS011;64068;44.762;21.514;2022-11-04T07:00:13;18.25;;;10.63;;
75486;SDS011;64068;44.762;21.514;2022-11-04T07:02:40;17.73;;;10.85;;
75486;SDS011;64068;44.762;21.514;2022-11-04T07:05:06;23.27;;;11.75;;
75486;SDS011;64068;44.762;21.514;2022-11-04T07:07:33;22.98;;;10.18;;
75486;SDS011;64068;44.762;21.514;2022-11-04T07:09:59;15.43;;;9.75;;
75486;SDS011;64068;44.762;21.514;2022-11-04T07:12:25;24.08;;;10.38;;
75486;SDS011;64068;44.762;21.514;2022-11-04T07:14:51;19.48;;;13.05;;
75486;SDS011;64068;44.762;21.514;2022-11-04T07:17:19;24.70;;;11.15;;
75486;SDS011;64068;44.762;21.514;2022-11-04T07:19:45;22.52;;;14.60;;
75486;SDS011;64068;44.762;21.514;2022-11-04T07:22:12;21.52;;;13.52;;
75486;SDS011;64068;44.762;21.514;2022-11-04T07:24:38;22.33;;;14.77;;
75486;SDS011;64068;44.762;21.514;2022-11-04T07:27:04;19.02;;;12.15;;
75486;SDS011;64068;44.762;21.514;2022-11-04T07:29:32;16.70;;;10.40;;
75486;SDS011;64068;44.762;21.514;2022-11-04T07:31:58;18.05;;;10.65;;
75486;SDS011;64068;44.762;21.514;2022-11-04T07:34:24;23.08;;;11.30;;
75486;SDS011;64068;44.762;21.514;2022-11-04T07:36:50;18.67;;;10.15;;
75486;SDS011;64068;44.762;21.514;2022-11-04T07:39:16;18.85;;;10.00;;
75486;SDS011;64068;44.762;21.514;2022-11-04T07:41:43;16.60;;;10.65;;
75486;SDS011;64068;44.762;21.514;2022-11-04T07:44:10;26.45;;;12.93;;
75486;SDS011;64068;44.762;21.514;2022-11-04T07:46:36;17.15;;;10.70;;
75486;SDS011;64068;44.762;21.514;2022-11-04T07:49:02;19.58;;;10.15;;
75486;SDS011;64068;44.762;21.514;2022-11-04T07:51:29;18.23;;;9.55;;
75486;SDS011;64068;44.762;21.514;2022-11-04T07:53:56;20.15;;;9.73;;
75486;SDS011;64068;44.762;21.514;2022-11-04T07:56:23;19.20;;;10.05;;
75486;SDS011;64068;44.762;21.514;2022-11-04T07:58:50;15.85;;;10.25;;
75486;SDS011;64068;44.762;21.514;2022-11-04T08:01:17;16.92;;;10.32;;
75486;SDS011;64068;44.762;21.514;2022-11-04T08:03:44;16.85;;;9.50;;
75486;SDS011;64068;44.762;21.514;2022-11-04T08:06:12;26.13;;;11.25;;
75486;SDS011;64068;44.762;21.514;2022-11-04T08:08:39;20.83;;;11.20;;
75486;SDS011;64068;44.762;21.514;2022-11-04T08:11:08;18.58;;;9.00;;
75486;SDS011;64068;44.762;21.514;2022-11-04T08:13:35;14.32;;;9.88;;
75486;SDS011;64068;44.762;21.514;2022-11-04T08:16:03;23.02;;;10.20;;
75486;SDS011;64068;44.762;21.514;2022-11-04T08:18:30;15.68;;;9.88;;
75486;SDS011;64068;44.762;21.514;2022-11-04T08:20:57;19.65;;;9.85;;
75486;SDS011;64068;44.762;21.514;2022-11-04T08:23:23;16.60;;;9.02;;
75486;SDS011;64068;44.762;21.514;2022-11-04T08:25:49;18.85;;;10.18;;
75486;SDS011;64068;44.762;21.514;2022-11-04T08:28:16;15.27;;;9.50;;
75486;SDS011;64068;44.762;21.514;2022-11-04T08:33:20;16.65;;;9.25;;
75486;SDS011;64068;44.762;21.514;2022-11-04T08:35:46;20.05;;;10.48;;
75486;SDS011;64068;44.762;21.514;2022-11-04T08:38:13;19.15;;;10.07;;
75486;SDS011;64068;44.762;21.514;2022-11-04T08:40:40;18.48;;;9.02;;
75486;SDS011;64068;44.762;21.514;2022-11-04T08:43:06;20.25;;;11.02;;
75486;SDS011;64068;44.762;21.514;2022-11-04T08:45:32;16.70;;;10.63;;
75486;SDS011;64068;44.762;21.514;2022-11-04T08:47:59;20.15;;;10.43;;
75486;SDS011;64068;44.762;21.514;2022-11-04T08:50:25;20.42;;;10.18;;
75486;SDS011;64068;44.762;21.514;2022-11-04T08:52:54;23.17;;;11.55;;
75486;SDS011;64068;44.762;21.514;2022-11-04T08:55:21;19.13;;;9.55;;
75486;SDS011;64068;44.762;21.514;2022-11-04T08:57:47;19.55;;;10.63;;
75486;SDS011;64068;44.762;21.514;2022-11-04T09:00:13;19.58;;;9.10;;
75486;SDS011;64068;44.762;21.514;2022-11-04T09:02:41;17.75;;;10.70;;
75486;SDS011;64068;44.762;21.514;2022-11-04T09:05:07;17.70;;;10.35;;
75486;SDS011;64068;44.762;21.514;2022-11-04T09:07:35;18.48;;;9.80;;
75486;SDS011;64068;44.762;21.514;2022-11-04T09:10:02;18.88;;;9.30;;
75486;SDS011;64068;44.762;21.514;2022-11-04T09:12:28;18.60;;;10.10;;
75486;SDS011;64068;44.762;21.514;2022-11-04T09:14:54;20.60;;;11.68;;
75486;SDS011;64068;44.762;21.514;2022-11-04T09:17:20;18.50;;;9.07;;
75486;SDS011;64068;44.762;21.514;2022-11-04T09:19:46;15.63;;;9.25;;
75486;SDS011;64068;44.762;21.514;2022-11-04T09:22:13;15.15;;;8.93;;
75486;SDS011;64068;44.762;21.514;2022-11-04T09:24:39;21.50;;;11.45;;
75486;SDS011;64068;44.762;21.514;2022-11-04T09:27:05;16.83;;;9.05;;
75486;SDS011;64068;44.762;21.514;2022-11-04T09:29:31;12.27;;;9.45;;
75486;SDS011;64068;44.762;21.514;2022-11-04T09:31:58;18.83;;;9.43;;
75486;SDS011;64068;44.762;21.514;2022-11-04T09:34:24;19.58;;;10.43;;
75486;SDS011;64068;44.762;21.514;2022-11-04T09:36:53;20.13;;;10.15;;
75486;SDS011;64068;44.762;21.514;2022-11-04T09:39:20;15.65;;;8.98;;
75486;SDS011;64068;44.762;21.514;2022-11-04T09:46:42;20.13;;;8.77;;
75486;SDS011;64068;44.762;21.514;2022-11-04T09:49:09;16.02;;;9.63;;
75486;SDS011;64068;44.762;21.514;2022-11-04T09:51:37;16.02;;;8.13;;
75486;SDS011;64068;44.762;21.514;2022-11-04T09:54:23;18.42;;;9.13;;
75486;SDS011;64068;44.762;21.514;2022-11-04T09:56:50;18.20;;;9.90;;
75486;SDS011;64068;44.762;21.514;2022-11-04T09:59:23;15.90;;;9.32;;
75486;SDS011;64068;44.762;21.514;2022-11-04T10:09:23;20.85;;;9.52;;
75486;SDS011;64068;44.762;21.514;2022-11-04T10:19:45;18.58;;;9.98;;
75486;SDS011;64068;44.762;21.514;2022-11-04T10:24:53;18.10;;;10.25;;
75486;SDS011;64068;44.762;21.514;2022-11-04T10:27:27;20.20;;;10.02;;
75486;SDS011;64068;44.762;21.514;2022-11-04T10:29:59;17.45;;;10.30;;
75486;SDS011;64068;44.762;21.514;2022-11-04T10:35:05;19.15;;;11.05;;
75486;SDS011;64068;44.762;21.514;2022-11-04T10:37:35;19.52;;;9.80;;
75486;SDS011;64068;44.762;21.514;2022-11-04T10:40:23;15.00;;;9.50;;
75486;SDS011;64068;44.762;21.514;2022-11-04T10:42:49;19.48;;;10.02;;
75486;SDS011;64068;44.762;21.514;2022-11-04T10:45:15;16.88;;;9.95;;
75486;SDS011;64068;44.762;21.514;2022-11-04T10:47:49;15.32;;;10.00;;
75486;SDS011;64068;44.762;21.514;2022-11-04T10:52:43;18.00;;;11.07;;
75486;SDS011;64068;44.762;21.514;2022-11-04T10:57:44;18.85;;;11.48;;
75486;SDS011;64068;44.762;21.514;2022-11-04T11:00:11;17.75;;;10.75;;
75486;SDS011;64068;44.762;21.514;2022-11-04T11:02:57;20.75;;;11.18;;
75486;SDS011;64068;44.762;21.514;2022-11-04T11:05:24;18.00;;;10.70;;
75486;SDS011;64068;44.762;21.514;2022-11-04T11:07:51;15.88;;;9.73;;
75486;SDS011;64068;44.762;21.514;2022-11-04T11:10:22;16.58;;;9.27;;
75486;SDS011;64068;44.762;21.514;2022-11-04T11:18:00;14.70;;;8.40;;
75486;SDS011;64068;44.762;21.514;2022-11-04T11:20:28;17.98;;;9.20;;
75486;SDS011;64068;44.762;21.514;2022-11-04T11:22:57;21.25;;;10.18;;
75486;SDS011;64068;44.762;21.514;2022-11-04T11:25:38;18.20;;;9.82;;
75486;SDS011;64068;44.762;21.514;2022-11-04T11:28:09;19.48;;;10.35;;
75486;SDS011;64068;44.762;21.514;2022-11-04T11:33:17;13.65;;;8.85;;
75486;SDS011;64068;44.762;21.514;2022-11-04T11:35:52;16.58;;;9.40;;
75486;SDS011;64068;44.762;21.514;2022-11-04T11:40:44;14.30;;;8.95;;
75486;SDS011;64068;44.762;21.514;2022-11-04T11:43:20;15.48;;;8.80;;
75486;SDS011;64068;44.762;21.514;2022-11-04T11:45:48;12.80;;;7.55;;
75486;SDS011;64068;44.762;21.514;2022-11-04T11:50:59;22.60;;;9.98;;
75486;SDS011;64068;44.762;21.514;2022-11-04T11:53:27;18.27;;;9.48;;
75486;SDS011;64068;44.762;21.514;2022-11-04T11:56:09;18.75;;;9.32;;
75486;SDS011;64068;44.762;21.514;2022-11-04T12:01:16;21.02;;;10.98;;
75486;SDS011;64068;44.762;21.514;2022-11-04T12:03:45;20.38;;;12.25;;
75486;SDS011;64068;44.762;21.514;2022-11-04T12:09:02;14.85;;;11.23;;
75486;SDS011;64068;44.762;21.514;2022-11-04T12:14:38;15.45;;;10.52;;
75486;SDS011;64068;44.762;21.514;2022-11-04T12:20:02;16.27;;;11.27;;
75486;SDS011;64068;44.762;21.514;2022-11-04T12:27:36;16.55;;;10.15;;
75486;SDS011;64068;44.762;21.514;2022-11-04T12:30:14;15.10;;;11.07;;
75486;SDS011;64068;44.762;21.514;2022-11-04T12:35:43;15.32;;;10.30;;
75486;SDS011;64068;44.762;21.514;2022-11-04T12:43:23;14.40;;;9.05;;
75486;SDS011;64068;44.762;21.514;2022-11-04T12:48:40;13.65;;;9.23;;
75486;SDS011;64068;44.762;21.514;2022-11-04T12:53:58;22.27;;;10.25;;
75486;SDS011;64068;44.762;21.514;2022-11-04T12:56:36;19.40;;;9.32;;
75486;SDS011;64068;44.762;21.514;2022-11-04T13:07:11;18.30;;;9.07;;
75486;SDS011;64068;44.762;21.514;2022-11-04T13:09:22;14.63;;;9.60;;
75486;SDS011;64068;44.762;21.514;2022-11-04T13:16:53;17.58;;;11.30;;
75486;SDS011;64068;44.762;21.514;2022-11-04T13:21:52;15.23;;;11.00;;
75486;SDS011;64068;44.762;21.514;2022-11-04T13:24:24;25.25;;;10.93;;
75486;SDS011;64068;44.762;21.514;2022-11-04T13:26:54;19.80;;;9.57;;
75486;SDS011;64068;44.762;21.514;2022-11-04T13:29:21;18.58;;;9.90;;
75486;SDS011;64068;44.762;21.514;2022-11-04T13:31:51;15.73;;;9.65;;
75486;SDS011;64068;44.762;21.514;2022-11-04T13:37:17;15.82;;;9.30;;
75486;SDS011;64068;44.762;21.514;2022-11-04T13:40:27;16.98;;;10.77;;
75486;SDS011;64068;44.762;21.514;2022-11-04T13:45:14;22.38;;;10.90;;
75486;SDS011;64068;44.762;21.514;2022-11-04T13:47:51;20.17;;;11.40;;
75486;SDS011;64068;44.762;21.514;2022-11-04T13:50:26;18.58;;;10.95;;
75486;SDS011;64068;44.762;21.514;2022-11-04T13:52:53;20.17;;;10.40;;
75486;SDS011;64068;44.762;21.514;2022-11-04T13:55:19;25.70;;;12.18;;
75486;SDS011;64068;44.762;21.514;2022-11-04T13:57:56;23.75;;;12.57;;
75486;SDS011;64068;44.762;21.514;2022-11-04T14:00:24;25.27;;;11.25;;
75486;SDS011;64068;44.762;21.514;2022-11-04T14:02:52;19.95;;;10.75;;
75486;SDS011;64068;44.762;21.514;2022-11-04T14:10:41;17.42;;;10.23;;
75486;SDS011;64068;44.762;21.514;2022-11-04T14:16:01;16.02;;;9.70;;
75486;SDS011;64068;44.762;21.514;2022-11-04T14:18:34;21.80;;;11.02;;
75486;SDS011;64068;44.762;21.514;2022-11-04T14:23:37;15.00;;;9.75;;
75486;SDS011;64068;44.762;21.514;2022-11-04T14:26:11;18.52;;;10.68;;
75486;SDS011;64068;44.762;21.514;2022-11-04T14:28:38;16.85;;;10.80;;
75486;SDS011;64068;44.762;21.514;2022-11-04T14:31:07;18.48;;;11.07;;
75486;SDS011;64068;44.762;21.514;2022-11-04T14:33:53;17.00;;;10.43;;
75486;SDS011;64068;44.762;21.514;2022-11-04T14:41:47;23.95;;;12.57;;
75486;SDS011;64068;44.762;21.514;2022-11-04T14:44:47;22.90;;;13.75;;
75486;SDS011;64068;44.762;21.514;2022-11-04T14:47:26;27.75;;;14.45;;
75486;SDS011;64068;44.762;21.514;2022-11-04T14:54:57;24.77;;;12.73;;
75486;SDS011;64068;44.762;21.514;2022-11-04T14:57:27;27.48;;;14.57;;
75486;SDS011;64068;44.762;21.514;2022-11-04T14:59:54;34.58;;;17.13;;
75486;SDS011;64068;44.762;21.514;2022-11-04T15:02:21;34.92;;;17.52;;
75486;SDS011;64068;44.762;21.514;2022-11-04T15:04:54;19.63;;;11.65;;
75486;SDS011;64068;44.762;21.514;2022-11-04T15:07:22;22.67;;;12.43;;
75486;SDS011;64068;44.762;21.514;2022-11-04T15:09:49;17.42;;;11.02;;
75486;SDS011;64068;44.762;21.514;2022-11-04T15:12:17;17.27;;;11.82;;
75486;SDS011;64068;44.762;21.514;2022-11-04T15:15:04;20.83;;;11.88;;
75486;SDS011;64068;44.762;21.514;2022-11-04T15:17:44;37.55;;;16.40;;
75486;SDS011;64068;44.762;21.514;2022-11-04T15:20:14;22.90;;;12.40;;
75486;SDS011;64068;44.762;21.514;2022-11-04T15:22:46;22.63;;;12.10;;
75486;SDS011;64068;44.762;21.514;2022-11-04T15:25:12;19.73;;;12.30;;
75486;SDS011;64068;44.762;21.514;2022-11-04T15:27:39;20.05;;;12.52;;
75486;SDS011;64068;44.762;21.514;2022-11-04T15:33:00;25.40;;;11.70;;
75486;SDS011;64068;44.762;21.514;2022-11-04T15:35:29;20.20;;;13.38;;
75486;SDS011;64068;44.762;21.514;2022-11-04T15:37:56;22.63;;;13.38;;
75486;SDS011;64068;44.762;21.514;2022-11-04T15:40:23;24.10;;;14.68;;
75486;SDS011;64068;44.762;21.514;2022-11-04T15:42:51;24.05;;;14.23;;
75486;SDS011;64068;44.762;21.514;2022-11-04T15:47:48;26.98;;;17.65;;
75486;SDS011;64068;44.762;21.514;2022-11-04T15:50:21;43.92;;;25.90;;
75486;SDS011;64068;44.762;21.514;2022-11-04T15:52:50;39.53;;;21.38;;
75486;SDS011;64068;44.762;21.514;2022-11-04T15:55:24;39.85;;;23.60;;
75486;SDS011;64068;44.762;21.514;2022-11-04T15:57:51;28.70;;;15.00;;
75486;SDS011;64068;44.762;21.514;2022-11-04T16:00:19;34.03;;;18.27;;
75486;SDS011;64068;44.762;21.514;2022-11-04T16:02:50;27.40;;;14.95;;
75486;SDS011;64068;44.762;21.514;2022-11-04T16:07:53;30.88;;;16.42;;
75486;SDS011;64068;44.762;21.514;2022-11-04T16:10:32;39.60;;;19.00;;
75486;SDS011;64068;44.762;21.514;2022-11-04T16:15:41;38.53;;;21.15;;
75486;SDS011;64068;44.762;21.514;2022-11-04T16:18:20;47.88;;;19.65;;
75486;SDS011;64068;44.762;21.514;2022-11-04T16:20:48;49.42;;;26.35;;
75486;SDS011;64068;44.762;21.514;2022-11-04T16:23:18;51.20;;;26.10;;
75486;SDS011;64068;44.762;21.514;2022-11-04T16:25:45;41.73;;;21.20;;
75486;SDS011;64068;44.762;21.514;2022-11-04T16:28:19;41.40;;;21.75;;
75486;SDS011;64068;44.762;21.514;2022-11-04T16:30:58;43.40;;;23.08;;
75486;SDS011;64068;44.762;21.514;2022-11-04T16:33:24;40.33;;;22.20;;
75486;SDS011;64068;44.762;21.514;2022-11-04T16:35:50;35.13;;;17.88;;
75486;SDS011;64068;44.762;21.514;2022-11-04T16:38:17;37.58;;;17.58;;
75486;SDS011;64068;44.762;21.514;2022-11-04T16:40:45;41.45;;;19.35;;
75486;SDS011;64068;44.762;21.514;2022-11-04T16:43:12;33.28;;;17.63;;
75486;SDS011;64068;44.762;21.514;2022-11-04T16:45:40;39.00;;;22.13;;
75486;SDS011;64068;44.762;21.514;2022-11-04T16:48:09;33.13;;;18.63;;
75486;SDS011;64068;44.762;21.514;2022-11-04T16:50:40;44.13;;;22.48;;
75486;SDS011;64068;44.762;21.514;2022-11-04T16:53:06;31.25;;;18.55;;
75486;SDS011;64068;44.762;21.514;2022-11-04T16:55:32;32.28;;;19.00;;
75486;SDS011;64068;44.762;21.514;2022-11-04T16:57:59;25.00;;;15.05;;
75486;SDS011;64068;44.762;21.514;2022-11-04T17:00:28;31.00;;;17.40;;
75486;SDS011;64068;44.762;21.514;2022-11-04T17:03:00;29.13;;;15.25;;
75486;SDS011;64068;44.762;21.514;2022-11-04T17:07:55;25.10;;;15.25;;
75486;SDS011;64068;44.762;21.514;2022-11-04T17:10:24;24.60;;;13.77;;
75486;SDS011;64068;44.762;21.514;2022-11-04T17:12:51;26.60;;;16.30;;
75486;SDS011;64068;44.762;21.514;2022-11-04T17:15:17;24.98;;;14.02;;
75486;SDS011;64068;44.762;21.514;2022-11-04T17:17:43;21.77;;;12.85;;
75486;SDS011;64068;44.762;21.514;2022-11-04T17:20:14;28.10;;;16.83;;
75486;SDS011;64068;44.762;21.514;2022-11-04T17:22:45;24.90;;;14.77;;
75486;SDS011;64068;44.762;21.514;2022-11-04T17:25:18;24.45;;;14.80;;
75486;SDS011;64068;44.762;21.514;2022-11-04T17:30:11;21.80;;;13.85;;